Picada Cafe, Brazil
Current Conditions -  °F | °C
As of 6:00 PM on Sunday 25 Jan 2015 (Local Time) from SBCO Reporting Station
Clear Clear  
Wind Chill: 90°   Ceiling: Unl
Heat Index: 90°   Visibility: 6mi
Dew Point: 61°   Wind: 6mph
Humidity: 38%   Direction: 330°NNW
Pressure: 29.8"   Gusts: NA
Location:  29.44°S, 51.14°W
Report Text: SBCO 252000Z 33005KT CAVOK 32/16 Q1009
Loading
Personal Weather Stations






























Interactive Weather Map New forecast layout! Learn more

10-Day Weather Forecast

Advertisements
Track Severe Weather on mobile